Time;durP1;ratioP1;P1;durP2;ratioP2;P2;SDS_P1;SDS_P2;PMS_P1;PMS_P2;Temp;Humidity;BMP_temperature;BMP_pressure;BME280_temperature;BME280_humidity;BME280_pressure;Samples;Min_cycle;Max_cycle;Signal;HPM_P1;HPM_P2
2022/08/13 00:01:37;;;;;;;7.65;6.95;;;;;;;17.19;84.62;96690.44;1646816;86;21351;-83
2022/08/13 00:04:07;;;;;;;8.10;7.40;;;;;;;17.17;84.34;96682.48;1592829;89;21072;-83
2022/08/13 00:09:04;;;;;;;7.40;6.62;;;;;;;17.17;84.63;96687.74;1612333;88;21028;-84
2022/08/13 00:14:11;;;;;;;8.28;7.33;;;;;;;17.21;84.86;96675.78;1640827;86;20987;-83
2022/08/13 00:16:37;;;;;;;9.18;8.28;;;;;;;17.22;84.83;96665.56;1630657;87;20998;-83
2022/08/13 00:19:03;;;;;;;8.60;7.78;;;;;;;17.24;84.81;96668.27;1629288;87;21064;-83
2022/08/13 00:21:29;;;;;;;7.83;7.17;;;;;;;17.26;85.00;96668.08;1631036;87;21023;-83
2022/08/13 00:23:57;;;;;;;8.85;7.85;;;;;;;17.29;85.11;96666.33;1636012;87;21548;-83
2022/08/13 00:26:25;;;;;;;8.83;7.92;;;;;;;17.30;85.00;96656.91;1625991;87;21107;-83
2022/08/13 00:28:54;;;;;;;11.08;8.13;;;;;;;17.27;84.69;96655.23;1628061;87;21006;-83
2022/08/13 00:31:22;;;;;;;8.25;7.55;;;;;;;17.23;84.57;96656.16;1633512;87;21013;-83
2022/08/13 00:33:47;;;;;;;7.92;7.12;;;;;;;17.19;84.51;96651.56;1635824;87;21000;-83
2022/08/13 00:36:14;;;;;;;8.83;8.03;;;;;;;17.15;84.40;96644.63;1630528;87;20956;-83
2022/08/13 00:38:44;;;;;;;9.38;7.45;;;;;;;17.13;84.38;96644.05;1625918;87;21006;-83
2022/08/13 00:41:37;;;;;;;8.28;7.58;;;;;;;17.17;84.69;96645.22;1623511;87;21492;-83
2022/08/13 00:43:39;;;;;;;8.83;8.13;;;;;;;17.22;85.02;96647.98;1631183;87;21050;-84
2022/08/13 00:46:07;;;;;;;8.80;8.00;;;;;;;17.25;84.99;96649.41;1616625;87;21899;-82
2022/08/13 00:48:42;;;;;;;9.43;8.45;;;;;;;17.20;84.76;96641.35;1628046;87;22415;-83
2022/08/13 00:51:09;;;;;;;9.35;8.40;;;;;;;17.16;84.64;96644.12;1619722;87;21067;-83
2022/08/13 00:53:39;;;;;;;9.18;8.33;;;;;;;17.10;84.68;96637.92;1688806;84;20989;-83
2022/08/13 00:56:06;;;;;;;9.08;8.18;;;;;;;17.07;84.86;96642.27;1686742;84;21029;-83
2022/08/13 00:58:34;;;;;;;8.80;8.00;;;;;;;17.03;84.88;96642.42;1680993;84;21027;-83
2022/08/13 01:01:00;;;;;;;9.43;8.58;;;;;;;17.01;84.96;96643.95;1680638;84;21070;-83
2022/08/13 01:03:31;;;;;;;8.85;8.05;;;;;;;16.97;84.77;96641.47;1681149;84;21086;-83
2022/08/13 01:06:01;;;;;;;9.25;8.30;;;;;;;16.93;84.73;96638.98;1687304;84;20998;-83
2022/08/13 01:08:31;;;;;;;8.03;7.33;;;;;;;16.90;84.87;96635.45;1677763;84;20991;-83
2022/08/13 01:10:56;;;;;;;8.40;7.60;;;;;;;16.89;84.85;96635.67;1685640;84;21022;-84
2022/08/13 01:13:25;;;;;;;9.38;8.48;;;;;;;16.86;85.04;96626.92;1679332;84;21074;-83
2022/08/13 01:15:50;;;;;;;8.80;8.00;;;;;;;16.87;85.03;96629.84;1678910;84;21039;-83
2022/08/13 01:18:17;;;;;;;9.05;8.15;;;;;;;16.85;84.98;96617.45;1683021;83;21591;-83
2022/08/13 01:20:48;;;;;;;8.98;8.15;;;;;;;16.85;85.08;96624.00;1682054;84;21037;-82
2022/08/13 01:23:14;;;;;;;9.00;8.20;;;;;;;16.83;85.00;96629.47;1677433;84;21029;-84
2022/08/13 01:25:42;;;;;;;8.78;7.87;;;;;;;16.76;84.98;96628.23;1689288;84;20994;-84
2022/08/13 01:28:08;;;;;;;8.48;7.67;;;;;;;16.73;85.19;96619.45;1681512;83;20983;-84
2022/08/13 01:30:33;;;;;;;8.18;7.37;;;;;;;16.73;85.28;96621.27;1682035;83;20989;-84
2022/08/13 01:33:02;;;;;;;7.37;6.70;;;;;;;16.73;85.47;96614.70;1687488;84;21353;-84
2022/08/13 01:35:27;;;;;;;8.73;7.92;;;;;;;16.71;85.38;96604.43;1678514;84;21066;-84
2022/08/13 01:37:54;;;;;;;9.00;8.18;;;;;;;16.69;85.41;96605.16;1676414;84;21046;-84
2022/08/13 01:40:21;;;;;;;8.73;7.92;;;;;;;16.66;85.39;96605.56;1688810;84;21326;-84
2022/08/13 01:42:48;;;;;;;8.40;7.60;;;;;;;16.65;85.44;96600.53;1687010;84;21026;-84
2022/08/13 01:45:14;;;;;;;9.13;8.23;;;;;;;16.62;85.37;96597.83;1685053;84;20968;-84
2022/08/13 01:50:31;;;;;;;10.50;9.48;;;;;;;16.61;85.36;96608.03;1684832;84;21100;-84
2022/08/13 01:53:07;;;;;;;9.00;8.20;;;;;;;16.58;85.44;96604.50;1681302;84;20959;-85
2022/08/13 01:55:52;;;;;;;9.08;8.28;;;;;;;16.60;85.54;96589.88;1678945;84;21434;-84
2022/08/13 01:58:19;;;;;;;9.73;8.73;;;;;;;16.59;85.54;96591.67;1679494;84;21041;-83
2022/08/13 02:00:51;;;;;;;9.78;8.88;;;;;;;16.58;85.76;96594.52;1687395;84;20991;-84
2022/08/13 02:03:19;;;;;;;11.40;10.30;;;;;;;16.55;85.67;96594.44;1684684;84;21437;-84
2022/08/13 02:05:48;;;;;;;9.73;8.83;;;;;;;16.53;85.77;96596.48;1647161;85;21395;-84
2022/08/13 02:08:16;;;;;;;10.48;9.45;;;;;;;16.53;85.95;96598.30;1678982;84;21050;-82
2022/08/13 02:10:43;;;;;;;11.10;9.98;;;;;;;16.51;85.98;96597.20;1689422;84;21043;-84
2022/08/13 02:13:13;;;;;;;10.93;9.93;;;;;;;16.53;86.29;96599.09;1680739;84;20978;-84
2022/08/13 02:15:40;;;;;;;11.12;10.13;;;;;;;16.57;86.30;96591.59;1682191;84;20974;-84
2022/08/13 02:18:07;;;;;;;11.75;10.58;;;;;;;16.56;86.04;96595.23;1655755;85;20975;-83
2022/08/13 02:20:35;;;;;;;11.00;10.00;;;;;;;16.54;85.96;96594.14;1626502;87;20996;-84
2022/08/13 02:23:04;;;;;;;11.75;10.65;;;;;;;16.53;85.85;96593.85;1681631;84;21119;-84
2022/08/13 02:25:31;;;;;;;13.62;10.90;;;;;;;16.50;85.96;96589.84;1653552;85;21069;-84
2022/08/13 02:27:57;;;;;;;10.58;9.48;;;;;;;16.47;86.10;96588.16;1680304;84;21089;-85
2022/08/13 02:30:24;;;;;;;10.20;9.23;;;;;;;16.45;86.11;96592.31;1681942;84;21062;-83
2022/08/13 02:32:50;;;;;;;9.05;8.15;;;;;;;16.46;86.23;96588.67;1681702;84;20981;-83
2022/08/13 02:35:18;;;;;;;10.35;9.23;;;;;;;16.47;86.40;96587.66;1680829;84;21010;-83
2022/08/13 02:37:44;;;;;;;9.40;8.50;;;;;;;16.49;86.51;96590.86;1680452;84;21510;-83
2022/08/13 02:42:58;;;;;;;9.35;8.55;;;;;;;16.57;86.88;96592.40;1678907;84;21032;-83
2022/08/13 02:45:24;;;;;;;9.28;8.38;;;;;;;16.59;87.04;96593.50;1680012;84;20986;-83
2022/08/13 02:47:51;;;;;;;9.65;8.73;;;;;;;16.53;86.99;96591.23;1682241;84;21004;-83
2022/08/13 02:50:20;;;;;;;9.05;8.13;;;;;;;16.63;87.39;96602.06;1689207;84;21015;-83
2022/08/13 02:52:51;;;;;;;11.78;8.28;;;;;;;16.66;87.20;96591.12;1683038;84;21043;-83
2022/08/13 02:55:22;;;;;;;10.58;9.58;;;;;;;16.69;87.15;96589.92;1679780;84;20998;-83
2022/08/13 02:57:48;;;;;;;9.60;8.70;;;;;;;16.70;87.11;96591.02;1655355;85;21059;-83
2022/08/13 03:00:15;;;;;;;10.80;9.70;;;;;;;16.74;87.49;96591.38;1682567;83;21023;-83
2022/08/13 03:02:44;;;;;;;9.28;8.48;;;;;;;16.75;87.42;96591.17;1682596;84;20978;-82
2022/08/13 03:05:13;;;;;;;11.10;10.08;;;;;;;16.80;87.56;96589.23;1688095;84;20990;-84
2022/08/13 03:07:41;;;;;;;11.18;10.25;;;;;;;16.81;86.99;96585.59;1678451;84;20983;-83
2022/08/13 03:10:11;;;;;;;12.73;11.45;;;;;;;16.76;86.60;96586.24;1653594;85;21040;-82
2022/08/13 03:12:43;;;;;;;11.40;10.30;;;;;;;16.72;86.60;96586.36;1659333;85;21405;-83
2022/08/13 03:15:10;;;;;;;11.20;10.20;;;;;;;16.71;86.44;96583.44;1664210;85;21434;-83
2022/08/13 03:17:37;;;;;;;11.20;10.15;;;;;;;16.71;86.42;96591.82;1660205;85;21029;-83
2022/08/13 03:20:08;;;;;;;12.63;11.38;;;;;;;16.71;86.11;96590.00;1682763;84;21036;-83
2022/08/13 03:22:55;;;;;;;13.08;11.12;;;;;;;16.67;86.01;96591.96;1651093;85;21019;-83
2022/08/13 03:25:23;;;;;;;12.90;11.70;;;;;;;16.67;86.24;96591.45;1657539;85;21410;-83
2022/08/13 03:27:49;;;;;;;13.10;11.83;;;;;;;16.62;85.96;96596.52;1682223;84;21357;-83
2022/08/13 03:30:16;;;;;;;11.93;10.85;;;;;;;16.58;86.03;96593.20;1686594;84;21010;-83
2022/08/13 03:32:45;;;;;;;12.60;11.40;;;;;;;16.54;85.97;96590.21;1682443;84;20955;-83
2022/08/13 03:35:21;;;;;;;13.08;11.70;;;;;;;16.49;85.73;96590.06;1677929;84;20998;-82
2022/08/13 03:37:53;;;;;;;12.70;11.57;;;;;;;16.48;86.01;96589.77;1684043;84;21078;-83
2022/08/13 03:40:21;;;;;;;13.00;11.68;;;;;;;16.45;85.91;96589.69;1678019;84;21084;-83
2022/08/13 03:42:50;;;;;;;12.78;11.45;;;;;;;16.42;85.83;96591.40;1688074;84;21028;-83
2022/08/13 03:45:17;;;;;;;13.13;11.93;;;;;;;16.39;85.92;96593.65;1690431;84;21059;-83
2022/08/13 03:47:44;;;;;;;12.55;11.25;;;;;;;16.37;86.34;96591.24;1691135;84;21357;-83
2022/08/13 03:50:12;;;;;;;12.13;10.95;;;;;;;16.39;86.27;96587.90;1680796;84;21129;-83
2022/08/13 03:52:38;;;;;;;11.38;10.23;;;;;;;16.42;86.49;96590.59;1689890;83;20977;-82
2022/08/13 03:55:11;;;;;;;10.68;9.75;;;;;;;16.46;86.70;96586.05;1683566;84;21010;-83
2022/08/13 03:57:44;;;;;;;11.25;10.23;;;;;;;16.48;86.86;96588.45;1691003;84;22132;-82
2022/08/13 04:00:07;;;;;;;10.53;9.45;;;;;;;16.50;86.92;96590.35;1680944;84;21472;-83
2022/08/13 04:02:33;;;;;;;11.38;10.18;;;;;;;16.53;87.10;96584.67;1683873;84;21387;-83
2022/08/13 04:04:58;;;;;;;11.55;10.32;;;;;;;16.53;87.16;96576.00;1679601;84;21012;-83
2022/08/13 04:07:27;;;;;;;11.05;9.95;;;;;;;16.55;87.46;96576.08;1685714;84;21041;-83
2022/08/13 04:09:54;;;;;;;14.87;10.65;;;;;;;16.59;87.75;96578.56;1680055;84;21013;-82
2022/08/13 04:12:20;;;;;;;10.75;9.65;;;;;;;16.64;87.69;96574.00;1690516;84;22344;-83
2022/08/13 04:14:46;;;;;;;12.58;10.88;;;;;;;16.67;87.72;96573.09;1678147;84;20966;-83
2022/08/13 04:17:12;;;;;;;15.58;11.45;;;;;;;16.71;87.81;96577.39;1656832;85;21035;-83
2022/08/13 04:19:38;;;;;;;12.65;10.82;;;;;;;16.75;88.41;96574.11;1638006;87;21533;-83
2022/08/13 04:22:06;;;;;;;13.20;11.68;;;;;;;16.78;88.43;96575.53;1647669;85;21057;-83
2022/08/13 04:24:33;;;;;;;14.73;13.00;;;;;;;16.80;88.55;96574.29;1648327;85;21021;-83
2022/08/13 04:27:00;;;;;;;18.07;14.73;;;;;;;16.83;88.86;96573.56;1628041;87;21081;-83
2022/08/13 04:29:25;;;;;;;15.88;14.20;;;;;;;16.87;88.94;96568.97;1626376;85;21137;-84
2022/08/13 04:31:52;;;;;;;18.07;15.20;;;;;;;16.96;89.01;96578.18;1656783;85;21082;-83
2022/08/13 04:34:21;;;;;;;20.25;16.57;;;;;;;16.96;88.83;96580.00;1664010;85;21038;-83
2022/08/13 04:36:48;;;;;;;18.37;15.88;;;;;;;16.98;89.10;96572.20;1662957;85;21631;-83
2022/08/13 04:39:14;;;;;;;18.45;15.75;;;;;;;17.01;89.00;96563.08;1659418;85;21125;-83
2022/08/13 04:41:40;;;;;;;16.52;14.18;;;;;;;17.07;89.47;96562.20;1661525;85;21075;-83
2022/08/13 04:44:05;;;;;;;17.65;15.30;;;;;;;17.10;89.30;96556.54;1661950;85;21365;-83
2022/08/13 04:46:31;;;;;;;17.25;14.30;;;;;;;17.17;89.61;96559.08;1657147;85;21033;-83
2022/08/13 04:48:57;;;;;;;16.25;13.85;;;;;;;17.22;89.84;96551.34;1687839;84;20924;-83
2022/08/13 04:51:25;;;;;;;18.32;14.98;;;;;;;17.24;89.44;96556.66;1685740;84;21377;-83
2022/08/13 04:53:51;;;;;;;16.87;13.98;;;;;;;17.28;89.57;96558.36;1680905;84;21054;-83
2022/08/13 04:56:17;;;;;;;15.93;13.98;;;;;;;17.33;89.44;96561.13;1683593;84;21049;-83
2022/08/13 04:58:42;;;;;;;17.20;14.63;;;;;;;17.35;89.89;96563.02;1686675;84;20978;-82
2022/08/13 05:01:10;;;;;;;16.07;14.33;;;;;;;17.28;89.74;96566.24;1687867;84;20967;-83
2022/08/13 05:03:39;;;;;;;20.20;14.70;;;;;;;17.34;89.93;96572.72;1679726;83;21006;-83
2022/08/13 05:06:06;;;;;;;15.68;13.83;;;;;;;17.39;89.99;96568.91;1679263;84;21018;-83
2022/08/13 05:08:33;;;;;;;16.90;14.68;;;;;;;17.49;89.69;96568.41;1682542;84;21026;-83
2022/08/13 05:10:59;;;;;;;18.98;15.45;;;;;;;17.54;90.06;96567.23;1683050;84;20992;-83
2022/08/13 05:13:36;;;;;;;17.90;14.47;;;;;;;17.62;89.95;96568.26;1656936;85;21385;-83
2022/08/13 05:16:04;;;;;;;15.23;13.18;;;;;;;17.65;89.98;96569.13;1630652;86;21509;-83
2022/08/13 05:18:32;;;;;;;15.80;13.62;;;;;;;17.69;89.95;96566.88;1647376;85;21424;-82
2022/08/13 05:21:01;;;;;;;16.48;13.83;;;;;;;17.79;89.81;96565.05;1620187;85;21449;-83
2022/08/13 05:23:27;;;;;;;15.98;14.28;;;;;;;17.79;89.60;96569.79;1656651;85;20987;-83
2022/08/13 05:25:53;;;;;;;18.23;14.35;;;;;;;17.78;89.37;96561.62;1662175;85;21460;-83
2022/08/13 05:28:19;;;;;;;14.90;13.38;;;;;;;17.76;89.54;96570.24;1625622;87;20983;-83
2022/08/13 05:30:46;;;;;;;15.03;12.95;;;;;;;17.79;89.71;96567.16;1682825;84;22271;-83
2022/08/13 05:33:18;;;;;;;17.32;14.90;;;;;;;17.84;89.70;96563.86;1652428;85;20994;-83
2022/08/13 05:35:46;;;;;;;19.07;15.00;;;;;;;17.87;90.22;96568.66;1655130;85;21385;-82
2022/08/13 05:38:12;;;;;;;16.65;13.95;;;;;;;17.87;90.51;96563.41;1648728;85;21035;-82
2022/08/13 05:40:38;;;;;;;18.95;14.43;;;;;;;17.89;90.44;96570.55;1653405;85;21049;-82
2022/08/13 05:43:13;;;;;;;22.07;15.80;;;;;;;17.87;91.00;96571.30;1654693;85;21034;-82
2022/08/13 05:45:40;;;;;;;22.50;16.30;;;;;;;17.81;90.98;96574.31;1654361;85;21062;-82
2022/08/13 05:48:05;;;;;;;21.07;15.72;;;;;;;17.79;91.35;96569.79;1654803;85;21006;-82
2022/08/13 05:50:33;;;;;;;23.15;16.82;;;;;;;17.81;91.37;96569.56;1641351;86;21063;-82
2022/08/13 05:53:10;;;;;;;21.90;17.05;;;;;;;17.87;91.52;96568.15;1672367;84;21033;-82
2022/08/13 05:55:38;;;;;;;23.38;16.37;;;;;;;17.93;92.02;96564.65;1667480;84;21010;-82
2022/08/13 05:58:05;;;;;;;21.80;16.60;;;;;;;18.02;92.17;96559.86;1672081;84;20971;-82
2022/08/13 06:03:24;;;;;;;24.95;18.00;;;;;;;18.16;92.36;96559.16;1673534;84;21006;-82
2022/08/13 06:05:54;;;;;;;24.35;17.57;;;;;;;18.21;92.07;96556.66;1672211;84;21463;-82
2022/08/13 06:08:28;;;;;;;19.62;15.10;;;;;;;18.22;91.93;96552.51;1669322;83;21405;-82
2022/08/13 06:10:57;;;;;;;23.83;17.57;;;;;;;18.14;92.26;96548.07;1634065;86;21020;-83
2022/08/13 06:13:23;;;;;;;23.30;15.88;;;;;;;18.10;91.92;96549.55;1617704;87;21031;-82
2022/08/13 06:15:56;;;;;;;24.12;16.55;;;;;;;18.09;92.75;96548.75;1675191;84;20997;-82
2022/08/13 06:18:18;;;;;;;23.75;16.07;;;;;;;18.13;92.12;96553.05;1632732;86;21074;-82
2022/08/13 06:20:44;;;;;;;22.05;15.85;;;;;;;18.22;92.18;96556.94;1631080;86;22222;-82
2022/08/13 06:23:12;;;;;;;23.38;16.27;;;;;;;18.33;92.33;96554.86;1631826;87;21040;-83
2022/08/13 06:25:37;;;;;;;22.10;15.65;;;;;;;18.40;92.22;96560.03;1635729;85;21409;-82
2022/08/13 06:28:04;;;;;;;26.00;17.60;;;;;;;18.45;92.08;96559.62;1673108;83;21037;-82
2022/08/13 06:30:30;;;;;;;24.47;17.57;;;;;;;18.33;91.62;96560.62;1642719;85;21299;-83
2022/08/13 06:33:02;;;;;;;26.00;18.32;;;;;;;18.32;92.05;96555.08;1629240;86;20984;-82
2022/08/13 06:35:28;;;;;;;24.57;16.65;;;;;;;18.40;92.19;96551.62;1629285;86;20972;-82
2022/08/13 06:37:54;;;;;;;22.10;16.30;;;;;;;18.53;91.92;96554.02;1630904;86;20989;-82
2022/08/13 06:40:23;;;;;;;21.87;15.95;;;;;;;18.69;91.80;96550.45;1627550;86;21414;-82
2022/08/13 06:42:50;;;;;;;20.97;15.20;;;;;;;18.82;91.57;96555.50;1636839;86;21020;-83
2022/08/13 06:45:19;;;;;;;21.30;14.90;;;;;;;18.86;91.36;96554.01;1672492;85;21082;-82
2022/08/13 06:47:44;;;;;;;19.15;14.85;;;;;;;18.94;90.95;96558.14;1673591;84;21035;-83
2022/08/13 06:50:11;;;;;;;16.55;12.65;;;;;;;18.90;90.78;96553.86;1634912;86;21125;-82
2022/08/13 06:52:38;;;;;;;14.80;11.65;;;;;;;18.99;90.90;96551.14;1627141;87;20990;-82
2022/08/13 06:55:07;;;;;;;16.82;12.55;;;;;;;19.02;90.00;96552.52;1654722;84;21003;-82
2022/08/13 06:57:36;;;;;;;20.37;14.03;;;;;;;19.02;90.28;96547.24;1652762;85;21027;-82
2022/08/13 07:00:06;;;;;;;19.73;13.65;;;;;;;19.02;89.87;96553.31;1653119;85;21098;-81
2022/08/13 07:02:32;;;;;;;17.60;13.45;;;;;;;19.05;89.94;96554.19;1649299;85;21102;-83
2022/08/13 07:04:58;;;;;;;19.07;14.30;;;;;;;19.06;90.18;96553.16;1660524;86;21060;-82
2022/08/13 07:07:24;;;;;;;19.80;15.30;;;;;;;19.10;90.20;96555.61;1654022;85;21047;-82
2022/08/13 07:09:50;;;;;;;19.90;14.05;;;;;;;19.14;89.63;96553.30;1650811;85;20960;-82
2022/08/13 07:12:16;;;;;;;20.88;15.00;;;;;;;19.18;89.71;96544.70;1652588;85;20999;-82
2022/08/13 07:14:43;;;;;;;20.15;14.85;;;;;;;19.24;89.11;96546.94;1656361;85;21043;-82
2022/08/13 07:17:10;;;;;;;20.00;14.35;;;;;;;19.24;89.51;96553.53;1632011;86;21118;-82
2022/08/13 07:19:37;;;;;;;19.20;13.50;;;;;;;19.25;88.93;96548.55;1627062;87;21015;-82
2022/08/13 07:22:04;;;;;;;21.27;15.70;;;;;;;19.26;89.14;96548.03;1649548;85;21022;-82
2022/08/13 07:24:31;;;;;;;21.48;15.68;;;;;;;19.26;88.63;96540.13;1650026;85;21091;-82
2022/08/13 07:27:05;;;;;;;23.00;15.88;;;;;;;19.24;88.81;96546.14;1666119;84;20952;-82
2022/08/13 07:29:36;;;;;;;23.02;15.78;;;;;;;19.18;88.73;96547.33;1662017;84;20987;-82
2022/08/13 07:32:06;;;;;;;21.55;16.00;;;;;;;19.21;89.11;96550.56;1625388;86;21077;-82
2022/08/13 07:34:34;;;;;;;23.80;16.20;;;;;;;19.18;88.85;96550.48;1624975;87;21429;-82
2022/08/13 07:37:03;;;;;;;24.90;18.62;;;;;;;19.12;88.63;96548.79;1657386;85;21059;-82
2022/08/13 07:39:28;;;;;;;21.70;15.63;;;;;;;19.04;88.44;96547.84;1658686;85;21018;-81
2022/08/13 07:41:54;;;;;;;22.90;15.93;;;;;;;19.03;88.95;96555.42;1657977;85;21101;-81
2022/08/13 07:44:21;;;;;;;22.02;15.20;;;;;;;18.93;88.81;96554.70;1628037;86;21040;-80
2022/08/13 07:46:48;;;;;;;22.98;15.20;;;;;;;18.86;89.50;96549.54;1628638;87;21346;-81
2022/08/13 07:49:14;;;;;;;22.55;15.88;;;;;;;18.82;89.37;96550.23;1652979;85;21066;-80
2022/08/13 07:51:42;;;;;;;24.40;16.07;;;;;;;18.80;89.53;96548.36;1667715;84;21600;-81
2022/08/13 07:54:09;;;;;;;21.40;15.18;;;;;;;18.82;89.91;96551.55;1631787;86;21000;-81
2022/08/13 07:56:35;;;;;;;21.07;14.53;;;;;;;18.84;89.97;96547.66;1618500;87;21062;-83
2022/08/13 07:59:09;;;;;;;21.93;15.13;;;;;;;18.84;89.93;96550.29;1618009;87;21326;-82
2022/08/13 08:01:50;;;;;;;22.15;15.50;;;;;;;18.79;89.69;96549.39;1614661;87;21458;-82
2022/08/13 08:04:17;;;;;;;22.50;15.13;;;;;;;18.76;90.13;96544.59;1615521;87;21086;-82
2022/08/13 08:06:47;;;;;;;19.17;13.80;;;;;;;18.75;90.26;96546.93;1612588;87;21079;-82
2022/08/13 08:09:22;;;;;;;18.77;13.43;;;;;;;18.79;90.19;96549.39;1608416;88;21028;-82
2022/08/13 08:14:32;;;;;;;18.40;13.48;;;;;;;18.85;90.44;96551.09;1632954;85;21136;-81
2022/08/13 08:17:03;;;;;;;19.65;14.03;;;;;;;18.79;90.11;96557.28;1641454;86;21497;-82
2022/08/13 08:19:27;;;;;;;19.62;13.83;;;;;;;18.79;90.46;96555.97;1634574;85;21127;-82
2022/08/13 08:21:56;;;;;;;19.95;14.47;;;;;;;18.81;90.60;96559.17;1642651;86;21042;-83
2022/08/13 08:24:22;;;;;;;18.27;13.90;;;;;;;18.84;90.56;96559.50;1611853;87;21076;-82
2022/08/13 08:26:48;;;;;;;22.85;14.90;;;;;;;18.86;90.93;96558.75;1634583;86;20999;-82
2022/08/13 08:29:14;;;;;;;17.10;13.48;;;;;;;18.81;90.30;96559.17;1630399;86;20965;-82
2022/08/13 08:31:40;;;;;;;17.48;13.55;;;;;;;18.87;91.05;96560.88;1642418;86;21004;-82
2022/08/13 08:34:07;;;;;;;17.98;13.98;;;;;;;18.87;90.50;96562.19;1643863;86;21000;-81
2022/08/13 08:36:41;;;;;;;19.48;12.98;;;;;;;18.90;90.71;96555.17;1610701;87;21403;-82
2022/08/13 08:44:38;;;;;;;17.02;13.00;;;;;;;19.05;90.68;96548.92;1638382;86;21008;-82
2022/08/13 08:47:04;;;;;;;18.70;13.90;;;;;;;19.06;90.43;96547.89;1635882;86;21055;-82
2022/08/13 08:49:30;;;;;;;15.95;13.10;;;;;;;19.08;90.45;96544.50;1641256;86;21399;-82
2022/08/13 08:51:57;;;;;;;16.50;12.58;;;;;;;19.07;90.23;96546.86;1619088;87;21167;-82
2022/08/13 08:54:23;;;;;;;17.52;13.78;;;;;;;19.07;90.53;96546.86;1647544;86;21100;-82
2022/08/13 08:56:56;;;;;;;17.60;13.13;;;;;;;19.11;90.58;96547.19;1642385;85;21148;-81
2022/08/13 08:59:20;;;;;;;16.10;13.28;;;;;;;19.12;90.44;96543.00;1649874;85;20944;-81
2022/08/13 09:01:45;;;;;;;18.73;13.93;;;;;;;19.10;90.46;96544.27;1654839;85;21683;-81
2022/08/13 09:04:12;;;;;;;16.52;12.78;;;;;;;19.07;90.48;96542.91;1649961;86;21098;-82
2022/08/13 09:06:38;;;;;;;18.30;13.88;;;;;;;19.06;90.29;96545.26;1649960;85;21349;-81
2022/08/13 09:09:06;;;;;;;18.62;12.90;;;;;;;19.06;90.78;96534.72;1650873;85;21108;-81
2022/08/13 09:11:34;;;;;;;16.25;12.43;;;;;;;19.08;90.50;96541.88;1647146;86;21016;-82
2022/08/13 09:14:07;;;;;;;16.50;13.03;;;;;;;19.11;90.77;96545.88;1653013;85;21599;-82
2022/08/13 09:16:31;;;;;;;17.32;14.00;;;;;;;19.18;91.11;96545.22;1648634;85;21041;-82
2022/08/13 09:18:57;;;;;;;15.85;11.78;;;;;;;19.25;91.45;96537.20;1650775;85;20974;-81
2022/08/13 09:21:23;;;;;;;13.50;10.53;;;;;;;19.28;91.33;96536.73;1653652;85;21464;-82
2022/08/13 09:23:48;;;;;;;14.40;10.82;;;;;;;19.29;90.86;96543.09;1655743;85;20990;-82
2022/08/13 09:26:15;;;;;;;14.30;10.72;;;;;;;19.25;91.14;96537.20;1644050;86;21077;-81
2022/08/13 09:28:42;;;;;;;11.93;9.38;;;;;;;19.30;91.37;96538.62;1647722;85;21557;-81
2022/08/13 09:31:08;;;;;;;13.25;10.58;;;;;;;19.27;91.58;96540.41;1652658;85;21034;-81
2022/08/13 09:33:38;;;;;;;11.15;9.75;;;;;;;19.20;91.80;96541.86;1650575;85;20998;-81
2022/08/13 09:36:02;;;;;;;10.90;8.45;;;;;;;19.17;91.85;96542.30;1651004;85;21026;-81
2022/08/13 09:38:28;;;;;;;10.98;8.58;;;;;;;19.16;92.06;96534.12;1653538;86;21067;-81
2022/08/13 09:40:59;;;;;;;11.50;9.28;;;;;;;19.17;91.54;96539.15;1648970;86;21010;-81
2022/08/13 09:43:32;;;;;;;9.50;8.50;;;;;;;19.14;91.96;96533.03;1647239;85;21081;-81
2022/08/13 09:45:58;;;;;;;10.65;8.45;;;;;;;19.20;92.41;96533.96;1653086;86;20971;-82
2022/08/13 09:48:28;;;;;;;10.65;9.25;;;;;;;19.21;92.10;96533.45;1650977;85;20953;-81
2022/08/13 09:50:53;;;;;;;10.72;8.48;;;;;;;19.23;92.40;96530.06;1650002;84;21052;-81
2022/08/13 09:53:20;;;;;;;10.93;9.15;;;;;;;19.26;92.35;96522.48;1645908;85;20984;-81
2022/08/13 09:55:45;;;;;;;10.72;8.63;;;;;;;19.28;92.16;96527.52;1652667;85;21468;-81
2022/08/13 09:58:11;;;;;;;11.22;9.10;;;;;;;19.25;92.08;96524.03;1636353;86;21011;-81
2022/08/13 10:00:39;;;;;;;9.00;6.95;;;;;;;19.32;92.60;96518.91;1663012;85;21023;-80
2022/08/13 10:03:08;;;;;;;8.78;7.15;;;;;;;19.41;92.77;96524.63;1668097;85;21416;-82
2022/08/13 10:05:34;;;;;;;9.55;6.62;;;;;;;19.47;93.17;96519.73;1661423;85;21033;-81
2022/08/13 10:08:05;;;;;;;7.03;6.33;;;;;;;19.58;93.16;96520.24;1662740;85;21009;-82
2022/08/13 10:10:32;;;;;;;8.85;7.58;;;;;;;19.64;93.04;96519.81;1653216;85;21056;-81
2022/08/13 10:12:59;;;;;;;10.60;8.18;;;;;;;19.57;92.09;96513.38;1649386;85;21331;-82
2022/08/13 10:15:26;;;;;;;8.38;7.50;;;;;;;19.52;92.11;96517.70;1655071;86;21007;-80
2022/08/13 10:17:58;;;;;;;8.68;7.62;;;;;;;19.41;91.98;96503.03;1648919;86;20998;-82
2022/08/13 10:20:30;;;;;;;;;;;;;;;19.43;92.03;96509.38;1634708;86;21378;-82
2022/08/13 10:22:59;;;;;;;;;;;;;;;19.41;92.56;96512.77;1670777;84;20099;-82
2022/08/13 10:25:28;;;;;;;7.97;7.15;;;;;;;19.29;92.12;96509.36;1663359;85;20239;-82
2022/08/13 10:27:54;;;;;;;9.90;8.38;;;;;;;19.26;92.79;96505.36;1666815;84;20987;-82
2022/08/13 10:30:24;;;;;;;8.95;7.20;;;;;;;19.29;92.87;96508.84;1658523;85;21348;-80
2022/08/13 10:32:50;;;;;;;9.40;7.78;;;;;;;19.28;92.81;96505.92;1631707;87;21442;-82
2022/08/13 10:35:19;;;;;;;9.50;6.65;;;;;;;19.26;92.92;96503.24;1665824;84;21019;-82
2022/08/13 10:37:47;;;;;;;6.83;6.10;;;;;;;19.23;93.33;96503.20;1667847;84;21003;-83
2022/08/13 10:40:15;;;;;;;6.75;4.97;;;;;;;19.21;93.46;96498.69;1660968;85;21016;-83
2022/08/13 10:42:44;;;;;;;5.25;4.25;;;;;;;19.23;93.63;96499.25;1662859;84;21409;-84
2022/08/13 10:45:13;;;;;;;6.15;4.45;;;;;;;19.30;93.90;96497.78;1659185;85;21415;-83
2022/08/13 10:47:47;;;;;;;5.37;4.87;;;;;;;19.32;93.77;96487.81;1662946;85;20968;-83
2022/08/13 10:50:17;;;;;;;6.25;4.85;;;;;;;19.41;94.25;96485.10;1664965;85;21010;-84
2022/08/13 10:52:43;;;;;;;4.92;4.35;;;;;;;19.54;94.30;96480.08;1660820;85;21437;-83
2022/08/13 10:55:13;;;;;;;4.85;4.33;;;;;;;19.69;94.52;96478.55;1656899;85;21024;-84
2022/08/13 10:57:42;;;;;;;5.33;4.15;;;;;;;19.91;94.43;96474.70;1662134;85;20999;-84
2022/08/13 11:00:10;;;;;;;5.22;4.25;;;;;;;20.01;93.86;96477.52;1662827;85;20985;-84
2022/08/13 11:02:37;;;;;;;5.42;4.35;;;;;;;20.15;94.05;96470.06;1654935;85;20992;-84
2022/08/13 11:05:07;;;;;;;7.58;5.60;;;;;;;20.28;93.87;96473.70;1655016;85;21021;-83
2022/08/13 11:07:34;;;;;;;6.08;5.10;;;;;;;20.39;93.89;96474.16;1652347;85;20995;-84
2022/08/13 11:10:01;;;;;;;6.60;5.40;;;;;;;20.53;93.26;96472.53;1651163;85;20998;-84
2022/08/13 11:12:27;;;;;;;5.90;5.30;;;;;;;20.59;92.85;96472.87;1654987;85;21397;-84
2022/08/13 11:14:53;;;;;;;6.05;5.40;;;;;;;20.55;92.65;96468.61;1655654;86;21032;-84
2022/08/13 11:17:19;;;;;;;6.17;5.50;;;;;;;20.55;93.00;96467.81;1651537;86;21011;-84
2022/08/13 11:19:46;;;;;;;6.30;5.70;;;;;;;20.49;92.05;96472.20;1654580;85;21465;-84
2022/08/13 11:22:12;;;;;;;6.78;4.95;;;;;;;20.49;92.16;96472.72;1653171;86;21125;-85
2022/08/13 11:24:38;;;;;;;8.05;5.53;;;;;;;20.46;92.60;96477.16;1656665;85;21373;-84
2022/08/13 11:27:05;;;;;;;6.17;5.50;;;;;;;20.48;92.35;96474.55;1648226;86;21020;-84
2022/08/13 11:29:31;;;;;;;6.47;5.60;;;;;;;20.38;91.70;96469.12;1656097;85;21061;-83
2022/08/13 11:31:57;;;;;;;9.28;6.53;;;;;;;20.36;92.34;96473.84;1649692;85;21375;-84
2022/08/13 11:34:24;;;;;;;8.48;6.80;;;;;;;20.39;92.17;96468.88;1655941;85;21284;-84
2022/08/13 11:36:50;;;;;;;9.25;6.45;;;;;;;20.40;91.99;96470.99;1653708;85;21026;-85
2022/08/13 11:39:15;;;;;;;8.40;7.33;;;;;;;20.46;92.44;96469.25;1647719;85;21050;-84
2022/08/13 11:41:41;;;;;;;7.90;7.12;;;;;;;20.55;92.12;96471.25;1650222;85;21367;-84
2022/08/13 11:44:07;;;;;;;7.67;6.05;;;;;;;20.60;92.50;96467.35;1652895;85;21051;-84
2022/08/13 11:46:33;;;;;;;7.72;6.83;;;;;;;20.62;92.02;96467.11;1647561;86;20975;-84
2022/08/13 11:48:58;;;;;;;8.78;7.70;;;;;;;20.61;92.54;96471.58;1655405;85;21569;-84